sensor_id;sensor_type;location;lat;lon;timestamp;pressure;altitude;pressure_sealevel;temperature;humidity
14117;BME280;7137;51.436;6.544;2022-11-20T00:01:48;100884.66;;;0.34;84.48
14117;BME280;7137;51.436;6.544;2022-11-20T00:04:51;100887.19;;;0.31;84.50
14117;BME280;7137;51.436;6.544;2022-11-20T00:07:53;100873.72;;;0.52;83.11
14117;BME280;7137;51.436;6.544;2022-11-20T00:10:54;100883.13;;;0.50;83.37
14117;BME280;7137;51.436;6.544;2022-11-20T00:13:58;100888.94;;;0.35;84.85
14117;BME280;7137;51.436;6.544;2022-11-20T00:17:00;100885.50;;;0.32;85.27
14117;BME280;7137;51.436;6.544;2022-11-20T00:20:03;100890.03;;;0.54;83.72
14117;BME280;7137;51.436;6.544;2022-11-20T00:23:05;100886.75;;;0.66;82.75
14117;BME280;7137;51.436;6.544;2022-11-20T00:26:09;100896.19;;;0.68;83.06
14117;BME280;7137;51.436;6.544;2022-11-20T00:29:11;100888.47;;;0.67;83.04
14117;BME280;7137;51.436;6.544;2022-11-20T00:32:12;100884.19;;;0.66;83.79
14117;BME280;7137;51.436;6.544;2022-11-20T00:35:15;100878.84;;;0.49;84.22
14117;BME280;7137;51.436;6.544;2022-11-20T00:38:17;100883.00;;;0.41;84.58
14117;BME280;7137;51.436;6.544;2022-11-20T00:41:18;100870.25;;;0.47;84.62
14117;BME280;7137;51.436;6.544;2022-11-20T00:44:20;100869.56;;;0.58;83.05
14117;BME280;7137;51.436;6.544;2022-11-20T00:47:21;100873.56;;;0.37;84.49
14117;BME280;7137;51.436;6.544;2022-11-20T00:50:24;100860.97;;;0.56;83.05
14117;BME280;7137;51.436;6.544;2022-11-20T00:53:26;100862.41;;;0.36;83.66
14117;BME280;7137;51.436;6.544;2022-11-20T00:56:28;100866.47;;;0.19;85.32
14117;BME280;7137;51.436;6.544;2022-11-20T00:59:29;100861.44;;;0.28;84.63
14117;BME280;7137;51.436;6.544;2022-11-20T01:02:31;100867.34;;;0.19;84.72
14117;BME280;7137;51.436;6.544;2022-11-20T01:05:35;100855.22;;;0.09;85.78
14117;BME280;7137;51.436;6.544;2022-11-20T01:08:38;100846.66;;;0.09;85.96
14117;BME280;7137;51.436;6.544;2022-11-20T01:11:41;100846.75;;;0.15;85.43
14117;BME280;7137;51.436;6.544;2022-11-20T01:14:42;100843.19;;;0.05;85.68
14117;BME280;7137;51.436;6.544;2022-11-20T01:17:44;100851.63;;;-0.04;86.79
14117;BME280;7137;51.436;6.544;2022-11-20T01:20:47;100850.88;;;0.02;87.17
14117;BME280;7137;51.436;6.544;2022-11-20T01:23:49;100856.22;;;0.20;86.12
14117;BME280;7137;51.436;6.544;2022-11-20T01:26:51;100853.84;;;0.36;85.41
14117;BME280;7137;51.436;6.544;2022-11-20T01:29:52;100838.69;;;0.57;84.46
14117;BME280;7137;51.436;6.544;2022-11-20T01:32:55;100838.06;;;0.79;83.41
14117;BME280;7137;51.436;6.544;2022-11-20T01:36:05;100837.28;;;0.85;82.75
14117;BME280;7137;51.436;6.544;2022-11-20T01:39:09;100836.28;;;0.72;83.08
14117;BME280;7137;51.436;6.544;2022-11-20T01:42:12;100835.38;;;0.70;83.60
14117;BME280;7137;51.436;6.544;2022-11-20T01:45:56;100832.06;;;0.80;82.98
14117;BME280;7137;51.436;6.544;2022-11-20T01:49:00;100825.94;;;0.68;84.04
14117;BME280;7137;51.436;6.544;2022-11-20T01:52:07;100831.88;;;0.61;85.20
14117;BME280;7137;51.436;6.544;2022-11-20T01:55:19;100841.22;;;0.55;86.37
14117;BME280;7137;51.436;6.544;2022-11-20T01:58:56;100836.38;;;0.84;84.98
14117;BME280;7137;51.436;6.544;2022-11-20T02:01:58;100827.88;;;0.90;83.26
14117;BME280;7137;51.436;6.544;2022-11-20T02:05:07;100829.59;;;0.88;83.77
14117;BME280;7137;51.436;6.544;2022-11-20T02:08:15;100826.94;;;0.80;84.39
14117;BME280;7137;51.436;6.544;2022-11-20T02:11:17;100827.19;;;1.08;82.67
14117;BME280;7137;51.436;6.544;2022-11-20T02:14:19;100821.16;;;1.03;82.54
14117;BME280;7137;51.436;6.544;2022-11-20T02:17:20;100819.47;;;1.06;82.62
14117;BME280;7137;51.436;6.544;2022-11-20T02:20:22;100818.72;;;1.18;82.51
14117;BME280;7137;51.436;6.544;2022-11-20T02:23:29;100825.47;;;1.08;83.00
14117;BME280;7137;51.436;6.544;2022-11-20T02:26:44;100813.53;;;1.13;83.50
14117;BME280;7137;51.436;6.544;2022-11-20T02:29:50;100805.84;;;1.15;82.49
14117;BME280;7137;51.436;6.544;2022-11-20T02:32:53;100811.00;;;1.21;81.56
14117;BME280;7137;51.436;6.544;2022-11-20T02:35:54;100798.94;;;1.12;81.76
14117;BME280;7137;51.436;6.544;2022-11-20T02:38:56;100805.09;;;1.28;81.83
14117;BME280;7137;51.436;6.544;2022-11-20T02:42:00;100805.84;;;1.19;82.75
14117;BME280;7137;51.436;6.544;2022-11-20T02:45:02;100806.75;;;1.23;81.97
14117;BME280;7137;51.436;6.544;2022-11-20T02:48:05;100798.97;;;1.14;82.58
14117;BME280;7137;51.436;6.544;2022-11-20T02:51:07;100800.53;;;0.98;83.10
14117;BME280;7137;51.436;6.544;2022-11-20T02:54:09;100801.09;;;0.70;83.99
14117;BME280;7137;51.436;6.544;2022-11-20T02:57:12;100799.16;;;0.44;85.49
14117;BME280;7137;51.436;6.544;2022-11-20T03:00:14;100801.56;;;0.31;87.37
14117;BME280;7137;51.436;6.544;2022-11-20T03:03:16;100804.00;;;0.20;89.10
14117;BME280;7137;51.436;6.544;2022-11-20T03:06:17;100800.94;;;0.53;87.34
14117;BME280;7137;51.436;6.544;2022-11-20T03:09:19;100793.31;;;0.57;88.65
14117;BME280;7137;51.436;6.544;2022-11-20T03:12:22;100805.59;;;0.89;86.72
14117;BME280;7137;51.436;6.544;2022-11-20T03:15:23;100791.16;;;1.05;84.24
14117;BME280;7137;51.436;6.544;2022-11-20T03:18:27;100789.44;;;1.01;85.10
14117;BME280;7137;51.436;6.544;2022-11-20T03:21:29;100799.66;;;0.96;85.55
14117;BME280;7137;51.436;6.544;2022-11-20T03:24:31;100800.53;;;0.98;86.62
14117;BME280;7137;51.436;6.544;2022-11-20T03:27:34;100803.16;;;1.01;87.19
14117;BME280;7137;51.436;6.544;2022-11-20T03:30:36;100806.69;;;1.14;86.08
14117;BME280;7137;51.436;6.544;2022-11-20T03:33:38;100808.53;;;1.30;85.22
14117;BME280;7137;51.436;6.544;2022-11-20T03:36:40;100798.31;;;1.41;84.13
14117;BME280;7137;51.436;6.544;2022-11-20T03:39:42;100791.38;;;1.28;85.85
14117;BME280;7137;51.436;6.544;2022-11-20T03:42:45;100801.75;;;1.43;86.17
14117;BME280;7137;51.436;6.544;2022-11-20T03:45:46;100795.78;;;1.48;85.56
14117;BME280;7137;51.436;6.544;2022-11-20T03:48:48;100793.22;;;1.50;86.32
14117;BME280;7137;51.436;6.544;2022-11-20T03:51:59;100797.66;;;1.71;83.09
14117;BME280;7137;51.436;6.544;2022-11-20T03:55:00;100795.09;;;1.78;81.85
14117;BME280;7137;51.436;6.544;2022-11-20T03:58:03;100798.53;;;1.74;81.65
14117;BME280;7137;51.436;6.544;2022-11-20T04:01:09;100792.44;;;1.59;83.83
14117;BME280;7137;51.436;6.544;2022-11-20T04:04:11;100790.72;;;1.61;83.26
14117;BME280;7137;51.436;6.544;2022-11-20T04:07:12;100787.19;;;1.48;82.29
14117;BME280;7137;51.436;6.544;2022-11-20T04:10:14;100783.69;;;1.37;83.25
14117;BME280;7137;51.436;6.544;2022-11-20T04:13:17;100791.38;;;1.29;83.22
14117;BME280;7137;51.436;6.544;2022-11-20T04:16:19;100779.13;;;1.01;84.32
14117;BME280;7137;51.436;6.544;2022-11-20T04:19:21;100772.22;;;0.97;84.43
14117;BME280;7137;51.436;6.544;2022-11-20T04:22:23;100778.31;;;1.03;84.86
14117;BME280;7137;51.436;6.544;2022-11-20T04:25:24;100780.94;;;1.12;84.69
14117;BME280;7137;51.436;6.544;2022-11-20T04:28:27;100779.28;;;1.19;84.84
14117;BME280;7137;51.436;6.544;2022-11-20T04:31:30;100787.88;;;1.23;85.00
14117;BME280;7137;51.436;6.544;2022-11-20T04:34:32;100785.31;;;1.26;84.82
14117;BME280;7137;51.436;6.544;2022-11-20T04:37:34;100783.56;;;1.22;86.57
14117;BME280;7137;51.436;6.544;2022-11-20T04:40:36;100781.94;;;1.31;86.60
14117;BME280;7137;51.436;6.544;2022-11-20T04:43:39;100783.78;;;1.54;85.60
14117;BME280;7137;51.436;6.544;2022-11-20T04:46:42;100780.38;;;1.55;85.11
14117;BME280;7137;51.436;6.544;2022-11-20T04:49:44;100778.69;;;1.60;85.16
14117;BME280;7137;51.436;6.544;2022-11-20T04:52:46;100772.75;;;1.70;84.01
14117;BME280;7137;51.436;6.544;2022-11-20T04:55:48;100772.78;;;1.74;83.51
14117;BME280;7137;51.436;6.544;2022-11-20T04:58:51;100778.81;;;1.79;83.82
14117;BME280;7137;51.436;6.544;2022-11-20T05:01:52;100775.47;;;1.97;81.53
14117;BME280;7137;51.436;6.544;2022-11-20T05:04:54;100779.69;;;1.83;82.70
14117;BME280;7137;51.436;6.544;2022-11-20T05:07:56;100773.56;;;1.66;84.18
14117;BME280;7137;51.436;6.544;2022-11-20T05:11:00;100776.13;;;1.63;84.25
14117;BME280;7137;51.436;6.544;2022-11-20T05:14:03;100773.66;;;1.81;83.99
14117;BME280;7137;51.436;6.544;2022-11-20T05:17:05;100777.13;;;1.89;82.86
14117;BME280;7137;51.436;6.544;2022-11-20T05:20:08;100776.22;;;1.79;83.65
14117;BME280;7137;51.436;6.544;2022-11-20T05:23:12;100773.66;;;1.79;84.42
14117;BME280;7137;51.436;6.544;2022-11-20T05:26:16;100769.41;;;1.85;82.77
14117;BME280;7137;51.436;6.544;2022-11-20T05:29:19;100771.88;;;1.68;84.59
14117;BME280;7137;51.436;6.544;2022-11-20T05:32:20;100771.00;;;1.67;85.86
14117;BME280;7137;51.436;6.544;2022-11-20T05:35:25;100756.53;;;1.86;83.63
14117;BME280;7137;51.436;6.544;2022-11-20T05:38:27;100765.91;;;1.78;84.93
14117;BME280;7137;51.436;6.544;2022-11-20T05:41:28;100758.19;;;1.76;85.97
14117;BME280;7137;51.436;6.544;2022-11-20T05:44:31;100760.78;;;1.83;86.08
14117;BME280;7137;51.436;6.544;2022-11-20T05:47:34;100752.25;;;1.85;86.23
14117;BME280;7137;51.436;6.544;2022-11-20T05:50:35;100753.97;;;1.91;86.62
14117;BME280;7137;51.436;6.544;2022-11-20T05:53:37;100758.31;;;1.98;85.50
14117;BME280;7137;51.436;6.544;2022-11-20T05:56:39;100758.31;;;1.99;85.76
14117;BME280;7137;51.436;6.544;2022-11-20T05:59:42;100754.88;;;2.00;86.11
14117;BME280;7137;51.436;6.544;2022-11-20T06:02:44;100754.03;;;2.06;85.92
14117;BME280;7137;51.436;6.544;2022-11-20T06:05:45;100743.75;;;2.14;85.19
14117;BME280;7137;51.436;6.544;2022-11-20T06:08:48;100752.34;;;2.14;86.04
14117;BME280;7137;51.436;6.544;2022-11-20T06:11:49;100766.06;;;2.08;85.48
14117;BME280;7137;51.436;6.544;2022-11-20T06:14:52;100754.06;;;2.21;83.71
14117;BME280;7137;51.436;6.544;2022-11-20T06:17:55;100752.38;;;2.23;84.28
14117;BME280;7137;51.436;6.544;2022-11-20T06:21:01;100750.63;;;2.12;85.05
14117;BME280;7137;51.436;6.544;2022-11-20T06:24:03;100749.78;;;2.19;84.89
14117;BME280;7137;51.436;6.544;2022-11-20T06:27:05;100752.34;;;2.14;84.89
14117;BME280;7137;51.436;6.544;2022-11-20T06:30:09;100742.06;;;2.17;85.51
14117;BME280;7137;51.436;6.544;2022-11-20T06:33:11;100758.38;;;2.22;84.96
14117;BME280;7137;51.436;6.544;2022-11-20T06:36:14;100757.50;;;2.25;84.67
14117;BME280;7137;51.436;6.544;2022-11-20T06:39:17;100755.78;;;2.19;85.75
14117;BME280;7137;51.436;6.544;2022-11-20T06:42:18;100763.56;;;2.25;85.78
14117;BME280;7137;51.436;6.544;2022-11-20T06:45:21;100766.13;;;2.27;86.26
14117;BME280;7137;51.436;6.544;2022-11-20T06:48:23;100767.84;;;2.31;86.61
14117;BME280;7137;51.436;6.544;2022-11-20T06:51:26;100780.75;;;2.31;86.43
14117;BME280;7137;51.436;6.544;2022-11-20T06:54:28;100785.09;;;2.43;85.84
14117;BME280;7137;51.436;6.544;2022-11-20T06:57:29;100785.91;;;2.38;86.37
14117;BME280;7137;51.436;6.544;2022-11-20T07:00:32;100778.22;;;2.45;86.77
14117;BME280;7137;51.436;6.544;2022-11-20T07:03:34;100782.50;;;2.46;86.34
14117;BME280;7137;51.436;6.544;2022-11-20T07:06:36;100784.22;;;2.48;86.47
14117;BME280;7137;51.436;6.544;2022-11-20T07:09:37;100790.25;;;2.49;86.61
14117;BME280;7137;51.436;6.544;2022-11-20T07:12:39;100802.31;;;2.54;86.08
14117;BME280;7137;51.436;6.544;2022-11-20T07:15:42;100796.28;;;2.57;86.05
14117;BME280;7137;51.436;6.544;2022-11-20T07:18:44;100796.28;;;2.57;86.24
14117;BME280;7137;51.436;6.544;2022-11-20T07:21:45;100798.91;;;2.74;83.19
14117;BME280;7137;51.436;6.544;2022-11-20T07:24:47;100793.72;;;2.63;83.97
14117;BME280;7137;51.436;6.544;2022-11-20T07:27:48;100795.44;;;2.59;83.95
14117;BME280;7137;51.436;6.544;2022-11-20T07:30:52;100786.84;;;2.60;84.46
14117;BME280;7137;51.436;6.544;2022-11-20T07:33:54;100786.88;;;2.68;83.83
14117;BME280;7137;51.436;6.544;2022-11-20T07:36:55;100786.84;;;2.62;84.41
14117;BME280;7137;51.436;6.544;2022-11-20T07:39:57;100785.13;;;2.58;84.77
14117;BME280;7137;51.436;6.544;2022-11-20T07:42:59;100784.22;;;2.45;85.79
14117;BME280;7137;51.436;6.544;2022-11-20T07:46:01;100783.38;;;2.46;87.18
14117;BME280;7137;51.436;6.544;2022-11-20T07:49:04;100772.22;;;2.55;86.78
14117;BME280;7137;51.436;6.544;2022-11-20T07:52:05;100767.91;;;2.64;86.75
14117;BME280;7137;51.436;6.544;2022-11-20T07:55:08;100773.13;;;2.67;86.27
14117;BME280;7137;51.436;6.544;2022-11-20T07:58:10;100774.81;;;2.79;85.76
14117;BME280;7137;51.436;6.544;2022-11-20T08:01:13;100777.41;;;2.85;86.14
14117;BME280;7137;51.436;6.544;2022-11-20T08:04:15;100771.38;;;2.95;86.36
14117;BME280;7137;51.436;6.544;2022-11-20T08:07:16;100759.34;;;3.07;86.85
14117;BME280;7137;51.436;6.544;2022-11-20T08:10:18;100763.66;;;3.20;86.87
14117;BME280;7137;51.436;6.544;2022-11-20T08:13:20;100761.94;;;3.31;86.32
14117;BME280;7137;51.436;6.544;2022-11-20T08:16:42;100762.75;;;3.47;86.32
14117;BME280;7137;51.436;6.544;2022-11-20T08:19:43;100766.19;;;3.56;85.15
14117;BME280;7137;51.436;6.544;2022-11-20T08:22:45;100773.91;;;3.70;85.11
14117;BME280;7137;51.436;6.544;2022-11-20T08:25:49;100760.88;;;4.10;81.71
14117;BME280;7137;51.436;6.544;2022-11-20T08:28:53;100762.59;;;4.03;80.40
14117;BME280;7137;51.436;6.544;2022-11-20T08:31:56;100754.06;;;3.84;82.37
14117;BME280;7137;51.436;6.544;2022-11-20T08:34:58;100765.22;;;3.96;84.15
14117;BME280;7137;51.436;6.544;2022-11-20T08:38:00;100763.44;;;5.35;80.66
14117;BME280;7137;51.436;6.544;2022-11-20T08:41:03;100770.75;;;5.81;77.20
14117;BME280;7137;51.436;6.544;2022-11-20T08:44:22;100767.22;;;5.87;74.36
14117;BME280;7137;51.436;6.544;2022-11-20T08:47:25;100777.28;;;5.31;73.78
14117;BME280;7137;51.436;6.544;2022-11-20T08:50:26;100779.41;;;4.84;76.26
14117;BME280;7137;51.436;6.544;2022-11-20T08:53:28;100784.72;;;4.58;77.91
14117;BME280;7137;51.436;6.544;2022-11-20T08:56:30;100778.63;;;4.71;78.35
14117;BME280;7137;51.436;6.544;2022-11-20T08:59:31;100770.84;;;4.72;78.12
14117;BME280;7137;51.436;6.544;2022-11-20T09:02:34;100770.03;;;4.67;79.63
14117;BME280;7137;51.436;6.544;2022-11-20T09:05:36;100769.06;;;4.82;79.34
14117;BME280;7137;51.436;6.544;2022-11-20T09:08:37;100761.13;;;5.02;78.73
14117;BME280;7137;51.436;6.544;2022-11-20T09:11:39;100756.81;;;5.02;78.77
14117;BME280;7137;51.436;6.544;2022-11-20T09:14:41;100744.81;;;4.95;79.42
14117;BME280;7137;51.436;6.544;2022-11-20T09:17:50;100746.50;;;4.98;79.69
14117;BME280;7137;51.436;6.544;2022-11-20T09:20:56;100749.09;;;4.99;79.54
14117;BME280;7137;51.436;6.544;2022-11-20T09:23:58;100752.59;;;4.89;79.03
14117;BME280;7137;51.436;6.544;2022-11-20T09:27:04;100747.50;;;4.77;79.37
14117;BME280;7137;51.436;6.544;2022-11-20T09:30:06;100741.66;;;4.55;82.17
14117;BME280;7137;51.436;6.544;2022-11-20T09:33:10;100739.41;;;5.21;80.49
14117;BME280;7137;51.436;6.544;2022-11-20T09:36:11;100735.72;;;5.44;79.05
14117;BME280;7137;51.436;6.544;2022-11-20T09:39:13;100740.09;;;5.39;79.71
14117;BME280;7137;51.436;6.544;2022-11-20T09:42:25;100738.28;;;5.45;80.18
14117;BME280;7137;51.436;6.544;2022-11-20T09:45:40;100740.00;;;5.49;78.48
14117;BME280;7137;51.436;6.544;2022-11-20T09:48:57;100740.06;;;5.42;79.46
14117;BME280;7137;51.436;6.544;2022-11-20T09:52:06;100744.09;;;5.70;80.08
14117;BME280;7137;51.436;6.544;2022-11-20T09:55:14;100749.03;;;5.93;79.18
14117;BME280;7137;51.436;6.544;2022-11-20T09:58:24;100742.81;;;6.05;78.20
14117;BME280;7137;51.436;6.544;2022-11-20T10:01:32;100736.69;;;6.13;78.02
14117;BME280;7137;51.436;6.544;2022-11-20T10:04:43;100732.41;;;6.11;77.04
14117;BME280;7137;51.436;6.544;2022-11-20T10:07:51;100724.59;;;6.12;78.34
14117;BME280;7137;51.436;6.544;2022-11-20T10:11:01;100719.31;;;6.18;78.48
14117;BME280;7137;51.436;6.544;2022-11-20T10:14:15;100714.91;;;6.25;78.22
14117;BME280;7137;51.436;6.544;2022-11-20T10:17:26;100714.81;;;6.31;78.46
14117;BME280;7137;51.436;6.544;2022-11-20T10:20:41;100705.19;;;6.41;78.38
14117;BME280;7137;51.436;6.544;2022-11-20T10:24:02;100698.06;;;6.53;78.39
14117;BME280;7137;51.436;6.544;2022-11-20T10:27:25;100698.81;;;6.62;78.10
14117;BME280;7137;51.436;6.544;2022-11-20T10:30:31;100688.19;;;6.77;77.23
14117;BME280;7137;51.436;6.544;2022-11-20T10:33:40;100689.06;;;6.76;77.20
14117;BME280;7137;51.436;6.544;2022-11-20T10:36:48;100687.34;;;6.76;78.34
14117;BME280;7137;51.436;6.544;2022-11-20T10:39:55;100684.75;;;6.75;78.58
14117;BME280;7137;51.436;6.544;2022-11-20T10:43:01;100692.47;;;6.79;76.12
14117;BME280;7137;51.436;6.544;2022-11-20T10:46:06;100693.53;;;6.68;76.48
14117;BME280;7137;51.436;6.544;2022-11-20T10:49:13;100679.13;;;6.48;78.21
14117;BME280;7137;51.436;6.544;2022-11-20T10:52:23;100674.19;;;6.30;79.57
14117;BME280;7137;51.436;6.544;2022-11-20T10:55:33;100673.38;;;6.28;78.75
14117;BME280;7137;51.436;6.544;2022-11-20T10:58:47;100662.97;;;6.30;79.26
14117;BME280;7137;51.436;6.544;2022-11-20T11:01:52;100657.75;;;6.31;79.22
14117;BME280;7137;51.436;6.544;2022-11-20T11:04:54;100643.09;;;6.29;79.61
14117;BME280;7137;51.436;6.544;2022-11-20T11:07:58;100637.22;;;6.17;80.33
14117;BME280;7137;51.436;6.544;2022-11-20T11:11:03;100644.19;;;6.14;79.74
14117;BME280;7137;51.436;6.544;2022-11-20T11:14:12;100635.59;;;6.10;81.71
14117;BME280;7137;51.436;6.544;2022-11-20T11:17:28;100633.34;;;6.44;81.05
14117;BME280;7137;51.436;6.544;2022-11-20T11:20:30;100617.63;;;6.53;81.07
14117;BME280;7137;51.436;6.544;2022-11-20T11:23:36;100613.13;;;6.65;80.65
14117;BME280;7137;51.436;6.544;2022-11-20T11:26:38;100601.75;;;6.72;80.64
14117;BME280;7137;51.436;6.544;2022-11-20T11:29:40;100594.88;;;6.69;79.05
14117;BME280;7137;51.436;6.544;2022-11-20T11:32:42;100588.91;;;6.64;80.59
14117;BME280;7137;51.436;6.544;2022-11-20T11:35:53;100573.50;;;6.55;81.10
14117;BME280;7137;51.436;6.544;2022-11-20T11:38:58;100582.19;;;6.52;81.57
14117;BME280;7137;51.436;6.544;2022-11-20T11:42:00;100572.59;;;6.56;81.50
14117;BME280;7137;51.436;6.544;2022-11-20T11:45:06;100563.00;;;6.63;80.25
14117;BME280;7137;51.436;6.544;2022-11-20T11:48:08;100558.78;;;6.55;80.49
14117;BME280;7137;51.436;6.544;2022-11-20T11:51:10;100550.81;;;6.66;79.85
14117;BME280;7137;51.436;6.544;2022-11-20T11:54:17;100556.91;;;6.64;79.68
14117;BME280;7137;51.436;6.544;2022-11-20T11:57:32;100550.16;;;6.53;80.79
14117;BME280;7137;51.436;6.544;2022-11-20T12:00:39;100551.75;;;6.62;80.52
14117;BME280;7137;51.436;6.544;2022-11-20T12:03:44;100543.00;;;6.68;81.74
14117;BME280;7137;51.436;6.544;2022-11-20T12:06:58;100541.16;;;6.73;82.56
14117;BME280;7137;51.436;6.544;2022-11-20T12:10:04;100536.75;;;6.78;82.01
14117;BME280;7137;51.436;6.544;2022-11-20T12:13:20;100532.38;;;6.80;81.08
14117;BME280;7137;51.436;6.544;2022-11-20T12:16:23;100525.56;;;6.74;81.83
14117;BME280;7137;51.436;6.544;2022-11-20T12:19:25;100520.25;;;6.80;81.43
14117;BME280;7137;51.436;6.544;2022-11-20T12:22:32;100524.31;;;6.95;81.75
14117;BME280;7137;51.436;6.544;2022-11-20T12:25:47;100519.75;;;7.06;81.13
14117;BME280;7137;51.436;6.544;2022-11-20T12:28:59;100520.63;;;7.05;80.03
14117;BME280;7137;51.436;6.544;2022-11-20T12:32:26;100522.47;;;7.00;81.10
14117;BME280;7137;51.436;6.544;2022-11-20T12:35:44;100516.41;;;7.00;81.19
14117;BME280;7137;51.436;6.544;2022-11-20T12:39:01;100509.41;;;7.05;80.95
14117;BME280;7137;51.436;6.544;2022-11-20T12:42:37;100504.38;;;6.96;79.65
14117;BME280;7137;51.436;6.544;2022-11-20T12:46:10;100495.19;;;6.79;81.26
14117;BME280;7137;51.436;6.544;2022-11-20T12:49:28;100489.38;;;6.67;82.83
14117;BME280;7137;51.436;6.544;2022-11-20T12:52:38;100486.81;;;6.65;83.98
14117;BME280;7137;51.436;6.544;2022-11-20T12:55:49;100478.09;;;6.69;82.25
14117;BME280;7137;51.436;6.544;2022-11-20T12:59:05;100466.94;;;6.64;82.32
14117;BME280;7137;51.436;6.544;2022-11-20T13:02:21;100466.34;;;6.50;82.63
14117;BME280;7137;51.436;6.544;2022-11-20T13:05:31;100463.16;;;6.36;84.37
14117;BME280;7137;51.436;6.544;2022-11-20T13:08:38;100447.88;;;6.20;86.35
14117;BME280;7137;51.436;6.544;2022-11-20T13:11:43;100443.56;;;6.19;85.91
14117;BME280;7137;51.436;6.544;2022-11-20T13:14:55;100444.31;;;6.26;85.82
14117;BME280;7137;51.436;6.544;2022-11-20T13:18:01;100439.25;;;6.20;84.93
14117;BME280;7137;51.436;6.544;2022-11-20T13:21:16;100429.00;;;6.12;86.59
14117;BME280;7137;51.436;6.544;2022-11-20T13:24:26;100420.56;;;6.00;87.27
14117;BME280;7137;51.436;6.544;2022-11-20T13:27:30;100418.00;;;5.98;89.01
14117;BME280;7137;51.436;6.544;2022-11-20T13:30:35;100421.38;;;6.03;89.82
14117;BME280;7137;51.436;6.544;2022-11-20T13:33:38;100415.09;;;6.16;89.10
14117;BME280;7137;51.436;6.544;2022-11-20T13:36:49;100420.41;;;6.10;90.42
14117;BME280;7137;51.436;6.544;2022-11-20T13:39:51;100408.13;;;6.20;89.14
14117;BME280;7137;51.436;6.544;2022-11-20T13:42:56;100395.13;;;6.21;89.13
14117;BME280;7137;51.436;6.544;2022-11-20T13:46:05;100391.59;;;6.25;89.10
14117;BME280;7137;51.436;6.544;2022-11-20T13:49:09;100384.00;;;6.15;90.35
14117;BME280;7137;51.436;6.544;2022-11-20T13:52:31;100381.44;;;6.13;91.11
14117;BME280;7137;51.436;6.544;2022-11-20T13:55:42;100375.22;;;6.22;89.97
14117;BME280;7137;51.436;6.544;2022-11-20T13:58:55;100361.47;;;6.17;90.42
14117;BME280;7137;51.436;6.544;2022-11-20T14:02:02;100351.19;;;6.14;91.64
14117;BME280;7137;51.436;6.544;2022-11-20T14:05:05;100339.81;;;6.21;91.88
14117;BME280;7137;51.436;6.544;2022-11-20T14:08:38;100338.97;;;6.19;90.97
14117;BME280;7137;51.436;6.544;2022-11-20T14:11:46;100327.78;;;6.17;91.88
14117;BME280;7137;51.436;6.544;2022-11-20T14:14:50;100325.91;;;6.25;92.27
14117;BME280;7137;51.436;6.544;2022-11-20T14:17:54;100327.69;;;6.21;92.37
14117;BME280;7137;51.436;6.544;2022-11-20T14:21:00;100318.75;;;6.36;91.66
14117;BME280;7137;51.436;6.544;2022-11-20T14:24:05;100303.47;;;6.22;91.63
14117;BME280;7137;51.436;6.544;2022-11-20T14:27:12;100296.44;;;6.28;91.13
14117;BME280;7137;51.436;6.544;2022-11-20T14:30:18;100296.69;;;6.15;92.99
14117;BME280;7137;51.436;6.544;2022-11-20T14:33:23;100287.31;;;6.10;92.94
14117;BME280;7137;51.436;6.544;2022-11-20T14:36:27;100291.53;;;6.14;92.09
14117;BME280;7137;51.436;6.544;2022-11-20T14:39:31;100284.78;;;6.05;94.24
14117;BME280;7137;51.436;6.544;2022-11-20T14:42:33;100273.66;;;6.00;95.37
14117;BME280;7137;51.436;6.544;2022-11-20T14:45:35;100270.00;;;6.10;94.72
14117;BME280;7137;51.436;6.544;2022-11-20T14:48:39;100270.69;;;6.20;93.66
14117;BME280;7137;51.436;6.544;2022-11-20T14:51:42;100265.66;;;6.12;94.78
14117;BME280;7137;51.436;6.544;2022-11-20T14:54:46;100256.72;;;6.25;92.93
14117;BME280;7137;51.436;6.544;2022-11-20T14:57:55;100252.66;;;6.14;93.12
14117;BME280;7137;51.436;6.544;2022-11-20T15:00:59;100237.94;;;6.14;92.82
14117;BME280;7137;51.436;6.544;2022-11-20T15:04:06;100234.59;;;6.09;94.09
14117;BME280;7137;51.436;6.544;2022-11-20T15:07:07;100238.34;;;5.96;94.94
14117;BME280;7137;51.436;6.544;2022-11-20T15:10:12;100230.38;;;6.04;95.74
14117;BME280;7137;51.436;6.544;2022-11-20T15:13:16;100224.53;;;5.95;96.57
14117;BME280;7137;51.436;6.544;2022-11-20T15:16:20;100217.47;;;6.02;96.61
14117;BME280;7137;51.436;6.544;2022-11-20T15:19:26;100210.50;;;6.04;95.76
14117;BME280;7137;51.436;6.544;2022-11-20T15:22:28;100209.66;;;6.04;96.69
14117;BME280;7137;51.436;6.544;2022-11-20T15:25:29;100196.63;;;6.07;96.49
14117;BME280;7137;51.436;6.544;2022-11-20T15:28:33;100196.53;;;6.11;96.43
14117;BME280;7137;51.436;6.544;2022-11-20T15:31:35;100196.56;;;6.10;96.45
14117;BME280;7137;51.436;6.544;2022-11-20T15:34:39;100193.75;;;6.19;95.28
14117;BME280;7137;51.436;6.544;2022-11-20T15:37:41;100186.06;;;6.16;95.55
14117;BME280;7137;51.436;6.544;2022-11-20T15:40:43;100188.72;;;6.13;95.60
14117;BME280;7137;51.436;6.544;2022-11-20T15:43:44;100192.38;;;6.03;97.07
14117;BME280;7137;51.436;6.544;2022-11-20T15:46:46;100184.50;;;6.09;95.63
14117;BME280;7137;51.436;6.544;2022-11-20T15:49:49;100185.72;;;5.92;96.64
14117;BME280;7137;51.436;6.544;2022-11-20T15:52:51;100182.06;;;6.01;97.80
14117;BME280;7137;51.436;6.544;2022-11-20T15:55:52;100174.19;;;6.06;97.58
14117;BME280;7137;51.436;6.544;2022-11-20T15:58:54;100176.75;;;6.07;97.75
14117;BME280;7137;51.436;6.544;2022-11-20T16:01:56;100171.41;;;6.13;97.08
14117;BME280;7137;51.436;6.544;2022-11-20T16:04:59;100175.06;;;6.05;97.74
14117;BME280;7137;51.436;6.544;2022-11-20T16:08:00;100160.31;;;6.08;97.99
14117;BME280;7137;51.436;6.544;2022-11-20T16:11:03;100161.09;;;6.12;97.68
14117;BME280;7137;51.436;6.544;2022-11-20T16:14:05;100148.84;;;6.17;98.25
14117;BME280;7137;51.436;6.544;2022-11-20T16:17:24;100135.19;;;6.10;99.02
14117;BME280;7137;51.436;6.544;2022-11-20T16:20:45;100131.88;;;6.04;98.63
14117;BME280;7137;51.436;6.544;2022-11-20T16:23:46;100111.97;;;6.06;98.29
14117;BME280;7137;51.436;6.544;2022-11-20T16:26:48;100111.75;;;6.15;98.78
14117;BME280;7137;51.436;6.544;2022-11-20T16:29:50;100099.69;;;6.14;98.60
14117;BME280;7137;51.436;6.544;2022-11-20T16:32:52;100098.69;;;6.19;98.10